Time;durP1;ratioP1;P1;durP2;ratioP2;P2;SDS_P1;SDS_P2;PMS_P1;PMS_P2;Temp;Humidity;BMP_temperature;BMP_pressure;BME280_temperature;BME280_humidity;BME280_pressure;Samples;Min_cycle;Max_cycle;Signal;HPM_P1;HPM_P2
2023/06/11 00:01:58;;;;;;;9.33;4.40;;;;;;;;;;5071282;28;20048;-60
2023/06/11 00:04:25;;;;;;;9.17;4.87;;;;;;;;;;5070651;28;20117;-60
2023/06/11 00:06:53;;;;;;;9.53;4.80;;;;;;;;;;5069664;28;20049;-60
2023/06/11 00:09:19;;;;;;;11.10;5.20;;;;;;;;;;5070957;28;20052;-60
2023/06/11 00:11:45;;;;;;;11.03;5.60;;;;;;;;;;5070961;28;20052;-60
2023/06/11 00:14:11;;;;;;;8.37;5.77;;;;;;;;;;5070978;28;20052;-60
2023/06/11 00:16:40;;;;;;;11.73;5.87;;;;;;;;;;5070946;28;20396;-60
2023/06/11 00:19:06;;;;;;;10.97;5.70;;;;;;;;;;5070324;28;20056;-60
2023/06/11 00:21:32;;;;;;;9.30;5.67;;;;;;;;;;5070332;28;20084;-60
2023/06/11 00:23:59;;;;;;;9.67;6.00;;;;;;;;;;5070640;28;20492;-60
2023/06/11 00:26:26;;;;;;;14.43;6.80;;;;;;;;;;5069454;28;20079;-60
2023/06/11 00:28:52;;;;;;;11.50;6.83;;;;;;;;;;5070410;28;20051;-60
2023/06/11 00:31:18;;;;;;;9.83;6.43;;;;;;;;;;5070682;28;20425;-60
2023/06/11 00:33:44;;;;;;;10.87;6.40;;;;;;;;;;5070316;28;20056;-60
2023/06/11 00:36:11;;;;;;;11.03;6.80;;;;;;;;;;5070691;28;20502;-60
2023/06/11 00:38:37;;;;;;;9.73;6.83;;;;;;;;;;5070636;28;20045;-61
2023/06/11 00:41:03;;;;;;;9.70;6.63;;;;;;;;;;5070325;28;20049;-60
2023/06/11 00:43:30;;;;;;;9.63;7.50;;;;;;;;;;5070183;28;20045;-60
2023/06/11 00:45:56;;;;;;;10.37;7.90;;;;;;;;;;5069807;28;20106;-60
2023/06/11 00:48:22;;;;;;;11.53;7.17;;;;;;;;;;5070186;28;20033;-60
2023/06/11 00:50:49;;;;;;;7.37;6.40;;;;;;;;;;5070275;28;20048;-60
2023/06/11 00:53:17;;;;;;;12.90;6.60;;;;;;;;;;5069886;28;20872;-60
2023/06/11 00:55:43;;;;;;;11.80;7.20;;;;;;;;;;5069524;28;20052;-60
2023/06/11 00:58:13;;;;;;;10.20;6.57;;;;;;;;;;5070085;28;20047;-60
2023/06/11 01:00:40;;;;;;;9.10;7.20;;;;;;;;;;5070192;28;20561;-61
2023/06/11 01:03:08;;;;;;;10.97;6.57;;;;;;;;;;5069652;28;20049;-60
2023/06/11 01:05:43;;;;;;;8.57;6.80;;;;;;;;;;5070367;28;20061;-60
2023/06/11 01:08:12;;;;;;;12.17;6.93;;;;;;;;;;5069537;28;20041;-61
2023/06/11 01:10:38;;;;;;;9.53;6.70;;;;;;;;;;5069496;28;20055;-61
2023/06/11 01:13:05;;;;;;;11.67;7.27;;;;;;;;;;5068854;28;20127;-61
2023/06/11 01:15:31;;;;;;;10.13;6.67;;;;;;;;;;5069959;28;20581;-60
2023/06/11 01:18:05;;;;;;;10.50;7.63;;;;;;;;;;5069218;28;20084;-60
2023/06/11 01:20:34;;;;;;;7.80;6.77;;;;;;;;;;5069967;28;20040;-60
2023/06/11 01:23:09;;;;;;;7.97;6.23;;;;;;;;;;5069484;28;20139;-60
2023/06/11 01:25:45;;;;;;;7.53;6.53;;;;;;;;;;5068929;28;20089;-60
2023/06/11 01:28:16;;;;;;;11.47;6.97;;;;;;;;;;5069525;28;21084;-60
2023/06/11 01:30:45;;;;;;;9.00;6.63;;;;;;;;;;5069292;28;20119;-60
2023/06/11 01:33:13;;;;;;;10.33;6.53;;;;;;;;;;5069153;28;20044;-60
2023/06/11 01:35:40;;;;;;;8.33;6.90;;;;;;;;;;5069820;28;20431;-60
2023/06/11 01:38:08;;;;;;;9.17;7.10;;;;;;;;;;5068562;28;20052;-60
2023/06/11 01:40:35;;;;;;;11.07;7.17;;;;;;;;;;5067938;28;20059;-60
2023/06/11 01:43:02;;;;;;;9.00;6.63;;;;;;;;;;5069363;28;20537;-60
2023/06/11 01:45:32;;;;;;;10.23;6.40;;;;;;;;;;5069175;28;20073;-61
2023/06/11 01:47:58;;;;;;;10.63;6.87;;;;;;;;;;5068413;28;20052;-60
2023/06/11 01:50:24;;;;;;;8.27;6.50;;;;;;;;;;5069311;28;20048;-60
2023/06/11 01:52:51;;;;;;;8.40;6.23;;;;;;;;;;5069206;28;20048;-60
2023/06/11 01:55:17;;;;;;;9.87;6.87;;;;;;;;;;5068531;28;20052;-60
2023/06/11 01:57:43;;;;;;;13.53;7.43;;;;;;;;;;5069027;28;20041;-60
2023/06/11 02:00:10;;;;;;;9.23;6.80;;;;;;;;;;5069045;28;20127;-60
2023/06/11 02:02:36;;;;;;;10.83;7.70;;;;;;;;;;5069055;28;20044;-60
2023/06/11 02:05:02;;;;;;;10.87;7.10;;;;;;;;;;5069287;28;20099;-60
2023/06/11 02:07:28;;;;;;;9.47;7.10;;;;;;;;;;5067587;28;20048;-60
2023/06/11 02:09:55;;;;;;;8.80;7.30;;;;;;;;;;5068379;28;20041;-60
2023/06/11 02:12:21;;;;;;;10.23;6.97;;;;;;;;;;5069073;28;20048;-60
2023/06/11 02:14:47;;;;;;;8.60;6.77;;;;;;;;;;5068584;28;20083;-60
2023/06/11 02:17:13;;;;;;;8.83;6.80;;;;;;;;;;5068686;28;20599;-60
2023/06/11 02:19:39;;;;;;;9.37;7.00;;;;;;;;;;5068746;28;20074;-61
2023/06/11 02:22:05;;;;;;;7.47;6.53;;;;;;;;;;5067982;28;20127;-60
2023/06/11 02:24:31;;;;;;;13.13;7.10;;;;;;;;;;5068769;28;20087;-60
2023/06/11 02:26:57;;;;;;;11.27;7.23;;;;;;;;;;5068670;28;20066;-60
2023/06/11 02:29:23;;;;;;;14.60;7.90;;;;;;;;;;5068306;28;20044;-60
2023/06/11 02:31:49;;;;;;;10.47;6.90;;;;;;;;;;5068467;28;20080;-61
2023/06/11 02:34:15;;;;;;;9.17;7.10;;;;;;;;;;5067971;28;20048;-60
2023/06/11 02:36:41;;;;;;;9.50;6.80;;;;;;;;;;5068079;28;20048;-61
2023/06/11 02:39:07;;;;;;;11.07;7.80;;;;;;;;;;5067720;28;20050;-60
2023/06/11 02:41:33;;;;;;;11.03;7.90;;;;;;;;;;5068015;28;20048;-60
2023/06/11 02:43:59;;;;;;;9.33;7.53;;;;;;;;;;5067908;28;20040;-60
2023/06/11 02:46:25;;;;;;;12.03;7.17;;;;;;;;;;5068476;28;20454;-60
2023/06/11 02:48:51;;;;;;;10.57;7.63;;;;;;;;;;5068559;28;20085;-60
2023/06/11 02:51:18;;;;;;;9.00;7.03;;;;;;;;;;5068399;28;20124;-60
2023/06/11 02:53:44;;;;;;;8.07;7.00;;;;;;;;;;5067725;28;20045;-61
2023/06/11 02:56:10;;;;;;;8.60;7.37;;;;;;;;;;5066582;28;20052;-60
2023/06/11 02:58:36;;;;;;;9.90;8.03;;;;;;;;;;5066428;28;20056;-60
2023/06/11 03:01:03;;;;;;;9.87;7.37;;;;;;;;;;5066804;28;20486;-60
2023/06/11 03:03:29;;;;;;;9.53;7.60;;;;;;;;;;5067431;28;20059;-60
2023/06/11 03:05:55;;;;;;;7.93;7.13;;;;;;;;;;5068532;28;20430;-60
2023/06/11 03:08:21;;;;;;;8.67;7.77;;;;;;;;;;5067446;28;20067;-60
2023/06/11 03:10:47;;;;;;;9.10;7.07;;;;;;;;;;5070767;28;20045;-60
2023/06/11 03:13:13;;;;;;;9.33;7.83;;;;;;;;;;5072280;28;20094;-60
2023/06/11 03:15:39;;;;;;;8.70;7.80;;;;;;;;;;5071514;28;20461;-60
2023/06/11 03:18:05;;;;;;;12.53;7.77;;;;;;;;;;5072167;28;20047;-61
2023/06/11 03:20:31;;;;;;;9.30;7.67;;;;;;;;;;5072137;28;20056;-60
2023/06/11 03:22:57;;;;;;;13.10;8.13;;;;;;;;;;5071573;28;20048;-60
2023/06/11 03:25:23;;;;;;;9.13;8.23;;;;;;;;;;5071506;28;21016;-60
2023/06/11 03:27:49;;;;;;;10.50;8.13;;;;;;;;;;5071721;28;20414;-60
2023/06/11 03:30:15;;;;;;;14.83;7.87;;;;;;;;;;5071659;28;20080;-61
2023/06/11 03:32:41;;;;;;;10.27;8.30;;;;;;;;;;5071881;28;20369;-60
2023/06/11 03:35:07;;;;;;;10.27;8.50;;;;;;;;;;5071607;28;20059;-61
2023/06/11 03:37:33;;;;;;;10.57;8.17;;;;;;;;;;5070361;28;20430;-61
2023/06/11 03:39:59;;;;;;;10.27;8.07;;;;;;;;;;5071764;28;20059;-60
2023/06/11 03:42:25;;;;;;;11.40;7.73;;;;;;;;;;5053299;28;20057;-60
2023/06/11 03:44:53;;;;;;;8.70;7.80;;;;;;;;;;5071535;28;20052;-60
2023/06/11 03:47:19;;;;;;;9.57;8.23;;;;;;;;;;5071352;28;20055;-60
2023/06/11 03:49:45;;;;;;;11.83;8.50;;;;;;;;;;5070222;28;20056;-60
2023/06/11 03:52:11;;;;;;;11.13;8.63;;;;;;;;;;5071564;28;20044;-61
2023/06/11 03:54:37;;;;;;;9.77;7.83;;;;;;;;;;5071187;28;20052;-60
2023/06/11 03:57:03;;;;;;;12.83;9.00;;;;;;;;;;5071004;28;20460;-61
2023/06/11 03:59:29;;;;;;;9.00;8.10;;;;;;;;;;5071255;28;20131;-61
2023/06/11 04:01:55;;;;;;;10.43;8.20;;;;;;;;;;5070863;28;20059;-60
2023/06/11 04:04:21;;;;;;;9.80;8.47;;;;;;;;;;5070844;28;20052;-61
2023/06/11 04:06:47;;;;;;;9.40;8.37;;;;;;;;;;5071114;28;20482;-60
2023/06/11 04:09:13;;;;;;;12.03;8.77;;;;;;;;;;5071005;28;20143;-60
2023/06/11 04:11:39;;;;;;;11.90;7.93;;;;;;;;;;5070445;28;20044;-60
2023/06/11 04:14:05;;;;;;;11.77;8.77;;;;;;;;;;5068932;28;20040;-61
2023/06/11 04:16:31;;;;;;;12.77;9.13;;;;;;;;;;5069546;28;20044;-60
2023/06/11 04:18:57;;;;;;;10.40;9.33;;;;;;;;;;5070810;28;20045;-61
2023/06/11 04:21:23;;;;;;;10.30;8.97;;;;;;;;;;5069306;28;20407;-60
2023/06/11 04:23:49;;;;;;;9.43;7.93;;;;;;;;;;5070165;28;20040;-60
2023/06/11 04:26:16;;;;;;;9.67;8.67;;;;;;;;;;5070706;28;20045;-60
2023/06/11 04:28:44;;;;;;;11.93;9.13;;;;;;;;;;5070570;28;20094;-60
2023/06/11 04:31:11;;;;;;;11.23;9.20;;;;;;;;;;5070601;28;20049;-60
2023/06/11 04:33:38;;;;;;;10.10;8.07;;;;;;;;;;5070397;28;20468;-60
2023/06/11 04:36:05;;;;;;;12.80;9.10;;;;;;;;;;5069844;28;20056;-60
2023/06/11 04:38:32;;;;;;;9.50;7.83;;;;;;;;;;5070367;28;20049;-60
2023/06/11 04:40:58;;;;;;;10.23;8.47;;;;;;;;;;5069586;28;20107;-60
2023/06/11 04:43:25;;;;;;;12.50;8.93;;;;;;;;;;5070409;28;20135;-60
2023/06/11 04:45:55;;;;;;;13.83;8.43;;;;;;;;;;5067584;28;20072;-61
2023/06/11 04:48:21;;;;;;;10.43;8.40;;;;;;;;;;5069413;28;20049;-60
2023/06/11 04:50:51;;;;;;;10.53;8.73;;;;;;;;;;5070013;28;20036;-60
2023/06/11 04:53:21;;;;;;;10.13;8.63;;;;;;;;;;5070127;28;20494;-60
2023/06/11 04:55:50;;;;;;;12.07;9.23;;;;;;;;;;5069837;28;20289;-61
2023/06/11 04:58:16;;;;;;;11.10;9.47;;;;;;;;;;5069358;28;20660;-60
2023/06/11 05:00:42;;;;;;;9.83;8.67;;;;;;;;;;5069941;28;20418;-60
2023/06/11 05:03:09;;;;;;;11.30;9.00;;;;;;;;;;5070169;28;20053;-61
2023/06/11 05:05:35;;;;;;;16.23;8.47;;;;;;;;;;5070027;28;20048;-61
2023/06/11 05:08:01;;;;;;;10.10;9.03;;;;;;;;;;5070068;28;20045;-61
2023/06/11 05:10:27;;;;;;;11.00;8.90;;;;;;;;;;5069203;28;20064;-61
2023/06/11 05:12:53;;;;;;;8.50;7.60;;;;;;;;;;5069683;28;20055;-61
2023/06/11 05:15:19;;;;;;;10.80;8.30;;;;;;;;;;5068924;28;20040;-61
2023/06/11 05:17:45;;;;;;;10.93;9.10;;;;;;;;;;5069827;28;20048;-60
2023/06/11 05:20:12;;;;;;;13.57;8.70;;;;;;;;;;5069658;28;20055;-60
2023/06/11 05:22:39;;;;;;;15.37;9.50;;;;;;;;;;5069741;28;20408;-61
2023/06/11 05:25:06;;;;;;;9.13;8.03;;;;;;;;;;5069706;28;20055;-61
2023/06/11 05:27:32;;;;;;;10.30;8.80;;;;;;;;;;5068488;28;20478;-61
2023/06/11 05:29:58;;;;;;;14.30;9.17;;;;;;;;;;5066102;28;20126;-60
2023/06/11 05:32:24;;;;;;;9.67;8.63;;;;;;;;;;5069102;28;20056;-61
2023/06/11 05:34:50;;;;;;;10.70;8.17;;;;;;;;;;5069287;28;20048;-61
2023/06/11 05:37:17;;;;;;;14.63;8.83;;;;;;;;;;5068618;28;20044;-62
2023/06/11 05:39:43;;;;;;;11.27;9.00;;;;;;;;;;5069226;28;20127;-60
2023/06/11 05:42:10;;;;;;;12.20;8.43;;;;;;;;;;5069009;28;20140;-61
2023/06/11 05:44:36;;;;;;;10.80;8.70;;;;;;;;;;5069002;28;20040;-61
2023/06/11 05:47:02;;;;;;;13.20;8.70;;;;;;;;;;5067648;28;20426;-61
2023/06/11 05:49:28;;;;;;;9.50;8.50;;;;;;;;;;5051089;28;20044;-61
2023/06/11 05:51:54;;;;;;;10.77;9.10;;;;;;;;;;5068747;28;20040;-60
2023/06/11 05:54:20;;;;;;;9.30;8.37;;;;;;;;;;5068516;28;20048;-60
2023/06/11 05:56:46;;;;;;;9.93;8.77;;;;;;;;;;5067583;28;20566;-60
2023/06/11 05:59:12;;;;;;;9.13;8.23;;;;;;;;;;5069076;28;20106;-61
2023/06/11 06:01:38;;;;;;;9.30;7.60;;;;;;;;;;5069149;28;20048;-61
2023/06/11 06:04:04;;;;;;;10.17;8.97;;;;;;;;;;5068249;28;20036;-61
2023/06/11 06:06:31;;;;;;;13.93;8.90;;;;;;;;;;5068845;28;20052;-61
2023/06/11 06:08:59;;;;;;;9.50;8.13;;;;;;;;;;5051094;28;20532;-61
2023/06/11 06:11:25;;;;;;;12.87;9.67;;;;;;;;;;5068515;28;21050;-61
2023/06/11 06:13:51;;;;;;;8.20;7.00;;;;;;;;;;5068686;28;20040;-61
2023/06/11 06:16:17;;;;;;;11.30;8.10;;;;;;;;;;5068588;28;20048;-61
2023/06/11 06:18:44;;;;;;;8.97;8.03;;;;;;;;;;5068147;28;20494;-62
2023/06/11 06:21:10;;;;;;;12.40;8.07;;;;;;;;;;5068296;28;20139;-62
2023/06/11 06:23:36;;;;;;;10.43;8.03;;;;;;;;;;5068871;28;20045;-63
2023/06/11 06:26:03;;;;;;;10.77;8.50;;;;;;;;;;5068301;28;20059;-61
2023/06/11 06:28:30;;;;;;;11.17;8.40;;;;;;;;;;5067098;28;20048;-61
2023/06/11 06:30:56;;;;;;;9.53;7.67;;;;;;;;;;5063405;28;20051;-62
2023/06/11 06:33:23;;;;;;;11.00;8.03;;;;;;;;;;5068329;28;20058;-61
2023/06/11 06:35:49;;;;;;;10.33;8.47;;;;;;;;;;5067216;28;20159;-62
2023/06/11 06:38:15;;;;;;;8.60;7.80;;;;;;;;;;5066887;28;20143;-62
2023/06/11 06:40:42;;;;;;;13.27;8.37;;;;;;;;;;5050256;28;20123;-62
2023/06/11 06:43:08;;;;;;;13.00;8.33;;;;;;;;;;5066599;28;20074;-62
2023/06/11 06:45:34;;;;;;;9.10;7.47;;;;;;;;;;5066355;28;20048;-62
2023/06/11 06:48:00;;;;;;;9.70;8.00;;;;;;;;;;5067913;28;20414;-62
2023/06/11 06:50:26;;;;;;;8.77;7.10;;;;;;;;;;5050727;28;20521;-61
2023/06/11 06:52:52;;;;;;;11.13;7.47;;;;;;;;;;5047565;28;20048;-61
2023/06/11 06:55:18;;;;;;;9.13;8.07;;;;;;;;;;5047792;28;20453;-61
2023/06/11 06:57:44;;;;;;;9.80;7.63;;;;;;;;;;5048112;28;20041;-61
2023/06/11 07:00:11;;;;;;;9.13;7.60;;;;;;;;;;5047911;28;20041;-61
2023/06/11 07:02:37;;;;;;;10.37;7.43;;;;;;;;;;5047892;28;20049;-61
2023/06/11 07:05:03;;;;;;;8.10;7.00;;;;;;;;;;5047542;28;20136;-62
2023/06/11 07:07:29;;;;;;;12.33;7.57;;;;;;;;;;5061249;28;20052;-61
2023/06/11 07:09:55;;;;;;;11.13;8.03;;;;;;;;;;5067336;28;20102;-61
2023/06/11 07:12:21;;;;;;;8.03;6.90;;;;;;;;;;5064655;28;20079;-62
2023/06/11 07:14:47;;;;;;;8.60;7.30;;;;;;;;;;5067577;28;20041;-61
2023/06/11 07:17:13;;;;;;;9.90;8.00;;;;;;;;;;5066405;28;20410;-62
2023/06/11 07:19:39;;;;;;;11.90;8.10;;;;;;;;;;5067928;28;20056;-62
2023/06/11 07:22:05;;;;;;;9.30;7.77;;;;;;;;;;5066009;28;20049;-62
2023/06/11 07:24:31;;;;;;;9.50;7.60;;;;;;;;;;5048738;28;20519;-62
2023/06/11 07:26:57;;;;;;;8.23;6.03;;;;;;;;;;5048335;28;20071;-62
2023/06/11 07:29:25;;;;;;;9.83;7.80;;;;;;;;;;5052983;28;20072;-62
2023/06/11 07:31:51;;;;;;;10.20;7.17;;;;;;;;;;5066382;28;20442;-62
2023/06/11 07:34:19;;;;;;;10.00;6.30;;;;;;;;;;5065530;28;20044;-62
2023/06/11 07:36:45;;;;;;;7.53;6.73;;;;;;;;;;5067791;28;20092;-62
2023/06/11 07:39:11;;;;;;;9.83;6.83;;;;;;;;;;5067012;28;20041;-62
2023/06/11 07:41:37;;;;;;;7.27;6.40;;;;;;;;;;5049275;28;20048;-62
2023/06/11 07:44:03;;;;;;;9.17;6.87;;;;;;;;;;5066393;28;20046;-62
2023/06/11 07:46:29;;;;;;;7.88;7.07;;;;;;;;;;5065319;28;20040;-62
2023/06/11 07:48:55;;;;;;;8.70;7.03;;;;;;;;;;5049078;28;20044;-62
2023/06/11 07:51:21;;;;;;;7.63;6.65;;;;;;;;;;5067222;28;20044;-62
2023/06/11 07:53:47;;;;;;;8.93;6.63;;;;;;;;;;5064965;28;20087;-62
2023/06/11 07:56:13;;;;;;;10.57;6.55;;;;;;;;;;5068158;28;20032;-62
2023/06/11 07:58:40;;;;;;;7.45;5.90;;;;;;;;;;5069175;28;20052;-62
2023/06/11 08:01:06;;;;;;;9.75;6.78;;;;;;;;;;5068883;28;20052;-62
2023/06/11 08:03:33;;;;;;;8.40;5.97;;;;;;;;;;5070838;28;20044;-62
2023/06/11 08:05:59;;;;;;;7.97;6.50;;;;;;;;;;5064888;28;20454;-62
2023/06/11 08:08:25;;;;;;;9.15;6.57;;;;;;;;;;5063882;28;20498;-62
2023/06/11 08:10:51;;;;;;;7.55;6.85;;;;;;;;;;5070831;28;20499;-62
2023/06/11 08:13:18;;;;;;;7.32;5.90;;;;;;;;;;5069186;28;20056;-62
2023/06/11 08:15:44;;;;;;;8.48;6.18;;;;;;;;;;5069377;28;20049;-62
2023/06/11 08:18:10;;;;;;;7.43;6.53;;;;;;;;;;5070406;28;20048;-62
2023/06/11 08:20:36;;;;;;;7.82;5.60;;;;;;;;;;5070636;28;20402;-62
2023/06/11 08:23:02;;;;;;;6.32;5.72;;;;;;;;;;5069851;28;20044;-62
2023/06/11 08:25:28;;;;;;;7.97;5.82;;;;;;;;;;5070002;28;20051;-62
2023/06/11 08:27:55;;;;;;;7.00;5.82;;;;;;;;;;5070128;28;20414;-62
2023/06/11 08:30:21;;;;;;;10.68;6.25;;;;;;;;;;5070706;28;20044;-62
2023/06/11 08:32:47;;;;;;;6.93;5.57;;;;;;;;;;5070273;28;20426;-62
2023/06/11 08:35:13;;;;;;;5.88;5.03;;;;;;;;;;5070712;28;20057;-63
2023/06/11 08:37:39;;;;;;;9.98;6.22;;;;;;;;;;5070510;28;20052;-62
2023/06/11 08:40:08;;;;;;;8.77;5.65;;;;;;;;;;5070365;28;20463;-63
2023/06/11 08:42:35;;;;;;;6.93;5.38;;;;;;;;;;5069905;28;20052;-62
2023/06/11 08:45:01;;;;;;;7.13;5.82;;;;;;;;;;5052086;28;20048;-62
2023/06/11 08:47:31;;;;;;;7.72;6.00;;;;;;;;;;5070637;28;20396;-63
2023/06/11 08:49:59;;;;;;;7.97;5.78;;;;;;;;;;5069300;28;20052;-62
2023/06/11 08:52:26;;;;;;;7.97;5.47;;;;;;;;;;5069649;28;20040;-63
2023/06/11 08:54:53;;;;;;;10.63;5.65;;;;;;;;;;5059267;28;20041;-63
2023/06/11 08:57:19;;;;;;;6.18;5.53;;;;;;;;;;5070100;28;20048;-63
2023/06/11 08:59:45;;;;;;;6.35;5.03;;;;;;;;;;5070191;28;20040;-63
2023/06/11 09:02:11;;;;;;;7.82;5.63;;;;;;;;;;5069517;28;20044;-62
2023/06/11 09:04:39;;;;;;;7.07;5.97;;;;;;;;;;5069978;28;20048;-62
2023/06/11 09:07:05;;;;;;;7.80;5.97;;;;;;;;;;5069474;28;20048;-63
2023/06/11 09:09:31;;;;;;;9.63;5.57;;;;;;;;;;5068466;28;20510;-63
2023/06/11 09:11:57;;;;;;;6.97;4.50;;;;;;;;;;5069476;28;20080;-63
2023/06/11 09:14:23;;;;;;;7.15;5.35;;;;;;;;;;5069091;28;20055;-62
2023/06/11 09:16:49;;;;;;;6.97;5.22;;;;;;;;;;5068198;28;20044;-63
2023/06/11 09:19:16;;;;;;;7.78;5.30;;;;;;;;;;5068925;28;20047;-63
2023/06/11 09:21:49;;;;;;;9.85;5.10;;;;;;;;;;5067584;28;20288;-63
2023/06/11 09:24:15;;;;;;;6.43;5.40;;;;;;;;;;5068305;28;20829;-63
2023/06/11 09:26:48;;;;;;;6.75;5.57;;;;;;;;;;5069499;28;20102;-63
2023/06/11 09:29:15;;;;;;;7.45;4.55;;;;;;;;;;5051629;28;20186;-63
2023/06/11 09:31:41;;;;;;;6.50;5.15;;;;;;;;;;5061151;28;20589;-63
2023/06/11 09:34:09;;;;;;;6.25;5.00;;;;;;;;;;5063375;28;20047;-63
2023/06/11 09:36:35;;;;;;;7.05;4.85;;;;;;;;;;5048916;28;20041;-63
2023/06/11 09:39:03;;;;;;;8.88;5.90;;;;;;;;;;5048488;28;20136;-63
2023/06/11 09:41:30;;;;;;;8.95;5.63;;;;;;;;;;5064619;28;20414;-63
2023/06/11 09:43:56;;;;;;;5.70;4.90;;;;;;;;;;5065678;28;20077;-63
2023/06/11 09:46:25;;;;;;;6.78;5.18;;;;;;;;;;5064269;28;20389;-63
2023/06/11 09:48:51;;;;;;;6.60;4.82;;;;;;;;;;5049152;28;20056;-63
2023/06/11 09:51:21;;;;;;;8.32;4.13;;;;;;;;;;5048310;28;20045;-63
2023/06/11 09:53:50;;;;;;;7.72;4.88;;;;;;;;;;5048886;28;20041;-63
2023/06/11 09:56:17;;;;;;;5.18;4.68;;;;;;;;;;5048737;28;20496;-63
2023/06/11 09:58:44;;;;;;;8.05;5.15;;;;;;;;;;5048668;28;20084;-63
2023/06/11 10:01:10;;;;;;;5.22;4.47;;;;;;;;;;5048062;28;20048;-63
2023/06/11 10:03:36;;;;;;;8.80;5.32;;;;;;;;;;5048654;28;20052;-63
2023/06/11 10:06:06;;;;;;;7.57;4.97;;;;;;;;;;5049062;28;21002;-64
2023/06/11 10:08:33;;;;;;;4.82;4.32;;;;;;;;;;5048373;28;20911;-63
2023/06/11 10:11:01;;;;;;;7.30;4.97;;;;;;;;;;5048607;28;20056;-63
2023/06/11 10:13:29;;;;;;;5.60;4.85;;;;;;;;;;5063624;28;20036;-64
2023/06/11 10:15:55;;;;;;;7.68;4.95;;;;;;;;;;5067276;28;20159;-63
2023/06/11 10:18:25;;;;;;;6.18;5.00;;;;;;;;;;5066927;28;20669;-63
2023/06/11 10:20:52;;;;;;;5.50;4.60;;;;;;;;;;5049967;28;20102;-63
2023/06/11 10:23:18;;;;;;;5.25;4.75;;;;;;;;;;5068117;28;20773;-63
2023/06/11 10:25:51;;;;;;;5.45;4.32;;;;;;;;;;5068307;28;20283;-63
2023/06/11 10:28:17;;;;;;;7.60;4.40;;;;;;;;;;5067904;28;20097;-63
2023/06/11 10:30:53;;;;;;;7.32;4.60;;;;;;;;;;5068340;28;20045;-63
2023/06/11 10:33:20;;;;;;;6.38;3.97;;;;;;;;;;5067205;28;20064;-63
2023/06/11 10:35:47;;;;;;;15.18;4.35;;;;;;;;;;5068294;28;20048;-63
2023/06/11 10:38:15;;;;;;;4.88;4.13;;;;;;;;;;5067956;28;20051;-63
2023/06/11 10:40:41;;;;;;;5.43;4.40;;;;;;;;;;5049875;28;20181;-63
2023/06/11 10:43:15;;;;;;;6.55;4.72;;;;;;;;;;5067861;28;20041;-63
2023/06/11 10:45:41;;;;;;;6.35;4.30;;;;;;;;;;5067397;28;20097;-63
2023/06/11 10:48:07;;;;;;;4.55;4.10;;;;;;;;;;5068062;28;20437;-63
2023/06/11 10:50:35;;;;;;;5.40;4.20;;;;;;;;;;5068116;28;20055;-63
2023/06/11 10:53:03;;;;;;;6.55;4.05;;;;;;;;;;5067639;28;20049;-63
2023/06/11 10:55:30;;;;;;;5.10;4.03;;;;;;;;;;5067735;28;20044;-63
2023/06/11 10:58:00;;;;;;;4.55;3.67;;;;;;;;;;5067349;28;20060;-63
2023/06/11 11:00:28;;;;;;;5.55;3.80;;;;;;;;;;5067972;28;20051;-63
2023/06/11 11:02:56;;;;;;;5.32;3.60;;;;;;;;;;5067868;28;20114;-63
2023/06/11 11:05:22;;;;;;;4.93;3.40;;;;;;;;;;5067968;28;20045;-63
2023/06/11 11:07:48;;;;;;;5.82;3.90;;;;;;;;;;5067615;28;20131;-63
2023/06/11 11:10:20;;;;;;;7.65;3.88;;;;;;;;;;5067412;28;20136;-63
2023/06/11 11:12:47;;;;;;;5.03;3.75;;;;;;;;;;5067445;28;20102;-63
2023/06/11 11:15:13;;;;;;;4.60;3.85;;;;;;;;;;5067504;28;20128;-63
2023/06/11 11:17:40;;;;;;;4.28;3.53;;;;;;;;;;5049671;28;20080;-63
2023/06/11 11:20:19;;;;;;;6.93;3.25;;;;;;;;;;5067718;28;20048;-63
2023/06/11 11:22:53;;;;;;;5.30;4.10;;;;;;;;;;5066982;28;20095;-63
2023/06/11 11:25:24;;;;;;;5.10;3.67;;;;;;;;;;5067462;28;20088;-63
2023/06/11 11:27:50;;;;;;;4.63;4.10;;;;;;;;;;5067315;28;20044;-63
2023/06/11 11:30:20;;;;;;;5.38;4.13;;;;;;;;;;5067289;28;20321;-63
2023/06/11 11:32:46;;;;;;;5.00;3.63;;;;;;;;;;5070810;28;20060;-63
2023/06/11 11:35:14;;;;;;;8.23;3.88;;;;;;;;;;5071486;28;20052;-63
2023/06/11 11:37:40;;;;;;;4.82;4.18;;;;;;;;;;5071292;28;20062;-63
2023/06/11 11:40:07;;;;;;;5.97;3.60;;;;;;;;;;5070892;28;20099;-63
2023/06/11 11:42:33;;;;;;;6.05;4.50;;;;;;;;;;5071413;28;20088;-63
2023/06/11 11:45:00;;;;;;;5.38;3.30;;;;;;;;;;5071212;28;20055;-63
2023/06/11 11:47:29;;;;;;;7.35;4.20;;;;;;;;;;5071024;28;20519;-63
2023/06/11 11:49:56;;;;;;;4.80;3.80;;;;;;;;;;5071037;28;20092;-63
2023/06/11 11:52:23;;;;;;;6.97;3.97;;;;;;;;;;5070983;28;20613;-63
2023/06/11 11:54:49;;;;;;;5.60;3.60;;;;;;;;;;5070619;28;20080;-63
2023/06/11 11:57:21;;;;;;;5.15;3.90;;;;;;;;;;5070808;28;20044;-63
2023/06/11 11:59:51;;;;;;;7.72;4.20;;;;;;;;;;5070554;28;20052;-63
2023/06/11 12:02:17;;;;;;;6.53;3.65;;;;;;;;;;5070857;28;20055;-63
2023/06/11 12:04:46;;;;;;;8.60;4.00;;;;;;;;;;5070804;28;20332;-63
2023/06/11 12:07:13;;;;;;;5.45;4.32;;;;;;;;;;5070445;28;20044;-63
2023/06/11 12:09:40;;;;;;;5.35;3.72;;;;;;;;;;5071023;28;20098;-63
2023/06/11 12:12:07;;;;;;;6.20;4.50;;;;;;;;;;5070794;28;20080;-63
2023/06/11 12:14:33;;;;;;;5.10;3.45;;;;;;;;;;5070659;28;20130;-64
2023/06/11 12:16:59;;;;;;;4.32;3.60;;;;;;;;;;5070801;28;20047;-63
2023/06/11 12:19:28;;;;;;;5.55;4.30;;;;;;;;;;5070799;28;20051;-63
2023/06/11 12:21:55;;;;;;;5.10;3.92;;;;;;;;;;5070141;28;20063;-63
2023/06/11 12:24:22;;;;;;;7.20;3.85;;;;;;;;;;5070570;28;20139;-63
2023/06/11 12:26:49;;;;;;;7.40;3.90;;;;;;;;;;5070616;28;20128;-63
2023/06/11 12:29:15;;;;;;;4.97;3.80;;;;;;;;;;5070968;28;20051;-63
2023/06/11 12:31:41;;;;;;;5.05;4.45;;;;;;;;;;5070232;28;20050;-63
2023/06/11 12:34:10;;;;;;;5.97;4.13;;;;;;;;;;5069892;28;20048;-63
2023/06/11 12:36:36;;;;;;;8.10;4.43;;;;;;;;;;5070421;28;20052;-63
2023/06/11 12:39:04;;;;;;;6.25;4.10;;;;;;;;;;5070105;28;20052;-63
2023/06/11 12:41:31;;;;;;;4.80;3.90;;;;;;;;;;5070403;28;20565;-63
2023/06/11 12:43:57;;;;;;;7.43;4.15;;;;;;;;;;5069065;28;20506;-63
2023/06/11 12:46:23;;;;;;;5.90;4.00;;;;;;;;;;5070333;28;20082;-63
2023/06/11 12:48:49;;;;;;;9.02;4.03;;;;;;;;;;5069771;28;20044;-63
2023/06/11 12:51:15;;;;;;;5.97;4.07;;;;;;;;;;5070259;28;20141;-63
2023/06/11 12:53:41;;;;;;;8.63;4.32;;;;;;;;;;5069909;28;20278;-63
2023/06/11 12:56:07;;;;;;;5.90;4.32;;;;;;;;;;5070054;28;20051;-63
2023/06/11 12:58:33;;;;;;;11.07;4.15;;;;;;;;;;5070182;28;20048;-63
2023/06/11 13:01:00;;;;;;;6.38;4.10;;;;;;;;;;5069699;28;20476;-63
2023/06/11 13:03:26;;;;;;;13.48;4.10;;;;;;;;;;5069582;28;20044;-63
2023/06/11 13:05:51;;;;;;;4.97;4.20;;;;;;;;;;5069936;28;20094;-63
2023/06/11 13:08:17;;;;;;;4.63;3.90;;;;;;;;;;5069877;28;20048;-63
2023/06/11 13:10:44;;;;;;;6.30;4.32;;;;;;;;;;5069876;28;20111;-63
2023/06/11 13:13:11;;;;;;;5.38;4.13;;;;;;;;;;5069410;28;20102;-63
2023/06/11 13:15:37;;;;;;;7.03;4.20;;;;;;;;;;5069190;28;20098;-63
2023/06/11 13:18:03;;;;;;;6.60;4.32;;;;;;;;;;5069592;28;20070;-63
2023/06/11 13:20:29;;;;;;;5.53;4.50;;;;;;;;;;5069616;28;20053;-63
2023/06/11 13:22:55;;;;;;;6.32;4.22;;;;;;;;;;5069366;28;20040;-63
2023/06/11 13:25:21;;;;;;;7.55;4.20;;;;;;;;;;5069454;28;20139;-63
2023/06/11 13:27:47;;;;;;;7.20;4.20;;;;;;;;;;5068863;28;20131;-63
2023/06/11 13:30:13;;;;;;;8.15;4.30;;;;;;;;;;5069294;28;20123;-63
2023/06/11 13:32:40;;;;;;;6.60;4.72;;;;;;;;;;5069071;28;20048;-63
2023/06/11 13:35:06;;;;;;;8.63;4.28;;;;;;;;;;5068547;28;20051;-63
2023/06/11 13:37:34;;;;;;;5.53;4.45;;;;;;;;;;5069106;28;20044;-63
2023/06/11 13:40:00;;;;;;;6.97;4.82;;;;;;;;;;5069160;28;20202;-63
2023/06/11 13:42:26;;;;;;;5.55;4.32;;;;;;;;;;5068800;28;20135;-64
2023/06/11 13:44:52;;;;;;;6.47;4.45;;;;;;;;;;5068808;28;20044;-63
2023/06/11 13:47:18;;;;;;;6.10;4.35;;;;;;;;;;5068487;28;20040;-63
2023/06/11 13:49:44;;;;;;;5.25;4.35;;;;;;;;;;5068973;28;20374;-63
2023/06/11 13:52:10;;;;;;;7.57;4.18;;;;;;;;;;5068707;28;20414;-63
2023/06/11 13:54:37;;;;;;;5.65;4.22;;;;;;;;;;5068578;28;20464;-63
2023/06/11 13:57:03;;;;;;;5.40;4.60;;;;;;;;;;5068685;28;20048;-63
2023/06/11 13:59:31;;;;;;;6.65;5.20;;;;;;;;;;5068612;28;20412;-63
2023/06/11 14:02:00;;;;;;;9.02;4.60;;;;;;;;;;5068080;28;20055;-63
2023/06/11 14:04:27;;;;;;;7.15;4.43;;;;;;;;;;5068737;28;20415;-64
2023/06/11 14:06:53;;;;;;;6.00;4.38;;;;;;;;;;5068715;28;20123;-63
2023/06/11 14:09:19;;;;;;;8.77;4.72;;;;;;;;;;5067839;28;20045;-63
2023/06/11 14:11:45;;;;;;;8.15;4.72;;;;;;;;;;5068758;28;20086;-63
2023/06/11 14:14:12;;;;;;;5.93;4.40;;;;;;;;;;5068560;28;20038;-63
2023/06/11 14:16:39;;;;;;;6.38;4.18;;;;;;;;;;5068250;28;20066;-64
2023/06/11 14:19:07;;;;;;;5.70;4.80;;;;;;;;;;5067894;28;20081;-63
2023/06/11 14:21:34;;;;;;;7.18;4.78;;;;;;;;;;5068127;28;20056;-63
2023/06/11 14:24:00;;;;;;;7.10;4.57;;;;;;;;;;5068066;28;20040;-63
2023/06/11 14:26:27;;;;;;;7.43;4.30;;;;;;;;;;5068417;28;20049;-64
2023/06/11 14:28:53;;;;;;;9.35;4.07;;;;;;;;;;5067753;28;20168;-64
2023/06/11 14:31:19;;;;;;;6.68;4.60;;;;;;;;;;5067868;28;20101;-64
2023/06/11 14:33:47;;;;;;;6.07;4.18;;;;;;;;;;5068069;28;20059;-64
2023/06/11 14:36:13;;;;;;;8.82;4.32;;;;;;;;;;5068150;28;20370;-64